createdAt,value
2019-01-25T00:01:52.546Z,68.65
2019-01-25T00:04:23.845Z,68.47
2019-01-25T00:06:56.299Z,67.46
2019-01-25T00:09:27.617Z,68.04
2019-01-25T00:11:58.988Z,68.21
2019-01-25T00:14:30.445Z,68.21
2019-01-25T00:17:01.680Z,67.57
2019-01-25T00:19:32.935Z,67.68
2019-01-25T00:22:04.248Z,68.16
2019-01-25T00:24:35.586Z,68.41
2019-01-25T00:27:07.029Z,68.41
2019-01-25T00:29:38.383Z,68.31
2019-01-25T00:32:09.421Z,68.34
2019-01-25T00:34:40.746Z,68.34
2019-01-25T00:37:12.030Z,67.41
2019-01-25T00:39:44.527Z,67.32
2019-01-25T00:42:16.024Z,66.79
2019-01-25T00:44:47.501Z,67.32
2019-01-25T00:47:18.947Z,67.32
2019-01-25T00:49:50.203Z,67.88
2019-01-25T00:52:21.450Z,68.55
2019-01-25T00:54:52.779Z,69.49
2019-01-25T00:57:24.100Z,69.99
2019-01-25T00:59:55.622Z,70.47
2019-01-25T01:02:27.107Z,70.43
2019-01-25T01:04:58.452Z,70.43
2019-01-25T01:07:29.558Z,69.97
2019-01-25T01:10:00.834Z,70.02
2019-01-25T01:12:32.053Z,70.74
2019-01-25T01:15:03.499Z,70.74
2019-01-25T01:17:34.775Z,71.29
2019-01-25T01:20:08.165Z,71.29
2019-01-25T01:22:39.895Z,71.64
2019-01-25T01:25:11.879Z,71.64
2019-01-25T01:27:43.373Z,71.90
2019-01-25T01:30:18.182Z,70.72
2019-01-25T01:32:50.218Z,70.72
2019-01-25T01:35:21.477Z,70.84
2019-01-25T01:37:53.377Z,70.89
2019-01-25T01:40:27.763Z,70.89
2019-01-25T01:42:59.082Z,71.07
2019-01-25T01:45:30.360Z,71.07
2019-01-25T01:48:01.601Z,70.99
2019-01-25T01:50:32.839Z,70.99
2019-01-25T01:53:04.023Z,71.30
2019-01-25T01:55:35.365Z,71.34
2019-01-25T01:58:07.694Z,71.34
2019-01-25T02:00:38.933Z,70.76
2019-01-25T02:03:10.335Z,70.67
2019-01-25T02:05:41.603Z,71.31
2019-01-25T02:08:12.905Z,71.31
2019-01-25T02:10:44.288Z,71.42
2019-01-25T02:13:15.757Z,71.42
2019-01-25T02:15:47.195Z,70.25
2019-01-25T02:18:18.505Z,71.10
2019-01-25T02:20:49.568Z,71.91
2019-01-25T02:23:20.929Z,71.91
2019-01-25T02:25:52.244Z,71.36
2019-01-25T02:28:23.657Z,71.36
2019-01-25T02:30:54.818Z,71.70
2019-01-25T02:33:26.041Z,71.37
2019-01-25T02:35:57.143Z,71.37
2019-01-25T02:38:28.368Z,70.31
2019-01-25T02:40:59.727Z,70.60
2019-01-25T02:43:32.113Z,70.93
2019-01-25T02:46:03.258Z,70.62
2019-01-25T02:48:34.485Z,70.62
2019-01-25T02:51:05.725Z,71.11
2019-01-25T02:53:37.068Z,70.78
2019-01-25T02:56:08.521Z,70.43
2019-01-25T02:58:39.732Z,70.36
2019-01-25T03:01:11.119Z,70.36
2019-01-25T03:03:42.233Z,70.01
2019-01-25T03:06:13.638Z,70.53
2019-01-25T03:08:46.667Z,70.53
2019-01-25T03:11:18.151Z,70.41
2019-01-25T03:13:49.709Z,71.37
2019-01-25T03:16:20.859Z,71.37
2019-01-25T03:18:52.255Z,71.44
2019-01-25T03:21:23.592Z,71.40
2019-01-25T03:23:55.073Z,71.34
2019-01-25T03:26:26.292Z,70.98
2019-01-25T03:28:57.622Z,70.98
2019-01-25T03:31:28.899Z,70.59
2019-01-25T03:34:01.172Z,70.59
2019-01-25T03:36:32.448Z,71.09
2019-01-25T03:39:04.660Z,72.29
2019-01-25T03:41:35.744Z,72.30
2019-01-25T03:44:07.765Z,72.15
2019-01-25T03:46:39.193Z,72.15
2019-01-25T03:49:12.278Z,72.44
2019-01-25T03:51:43.696Z,72.24
2019-01-25T03:54:14.975Z,71.91
2019-01-25T03:56:47.954Z,71.96
2019-01-25T03:59:19.332Z,71.96
2019-01-25T04:01:50.758Z,71.74
2019-01-25T04:04:21.811Z,71.92
2019-01-25T04:06:52.924Z,72.78
2019-01-25T04:09:24.493Z,72.78
2019-01-25T04:11:55.743Z,72.10
2019-01-25T04:14:27.119Z,71.82
2019-01-25T04:16:59.339Z,72.14
2019-01-25T04:19:30.659Z,71.60
2019-01-25T04:22:01.932Z,71.60
2019-01-25T04:24:33.138Z,71.27
2019-01-25T04:27:04.483Z,71.37
2019-01-25T04:29:35.646Z,71.27
2019-01-25T04:32:06.766Z,71.46
2019-01-25T04:34:38.090Z,71.46
2019-01-25T04:37:09.331Z,71.17
2019-01-25T04:39:40.517Z,70.66
2019-01-25T04:42:14.222Z,70.23
2019-01-25T04:44:45.396Z,70.23
2019-01-25T04:47:19.717Z,70.26
2019-01-25T04:49:51.217Z,70.74
2019-01-25T04:52:22.531Z,70.67
2019-01-25T04:54:53.905Z,70.83
2019-01-25T04:57:25.132Z,70.70
2019-01-25T04:59:56.513Z,71.78
2019-01-25T05:02:27.910Z,71.78
2019-01-25T05:04:59.176Z,71.37
2019-01-25T05:07:30.529Z,70.65
2019-01-25T05:10:01.688Z,71.37
2019-01-25T05:12:32.903Z,70.82
2019-01-25T05:15:04.419Z,70.82
2019-01-25T05:17:35.515Z,70.76
2019-01-25T05:20:07.884Z,70.54
2019-01-25T05:22:38.924Z,70.57
2019-01-25T05:25:10.437Z,69.81
2019-01-25T05:27:41.606Z,70.39
2019-01-25T05:30:13.286Z,70.45
2019-01-25T05:32:44.396Z,70.62
2019-01-25T05:35:15.574Z,70.02
2019-01-25T05:37:46.795Z,70.95
2019-01-25T05:40:23.225Z,70.95
2019-01-25T05:42:55.516Z,70.98
2019-01-25T05:45:26.775Z,70.75
2019-01-25T05:47:57.733Z,70.12
2019-01-25T05:50:29.054Z,71.35
2019-01-25T05:53:00.362Z,71.35
2019-01-25T05:55:31.782Z,71.23
2019-01-25T05:58:04.099Z,71.14
2019-01-25T06:00:37.742Z,72.04
2019-01-25T06:03:13.601Z,72.04
2019-01-25T06:05:45.145Z,72.18
2019-01-25T06:08:31.336Z,71.70
2019-01-25T06:11:07.109Z,71.70
2019-01-25T06:13:38.789Z,72.52
2019-01-25T06:16:10.464Z,72.47
2019-01-25T06:18:42.764Z,72.47
2019-01-25T06:21:14.298Z,72.52
2019-01-25T06:23:45.840Z,72.68
2019-01-25T06:26:17.422Z,73.30
2019-01-25T06:28:52.347Z,73.30
2019-01-25T06:31:23.618Z,73.84
2019-01-25T06:33:54.837Z,73.84
2019-01-25T06:36:26.158Z,74.73
2019-01-25T06:38:57.198Z,75.58
2019-01-25T06:41:28.522Z,75.78
2019-01-25T06:43:59.926Z,75.78
2019-01-25T06:46:31.418Z,75.35
2019-01-25T06:49:02.801Z,75.35
2019-01-25T06:51:34.171Z,75.83
2019-01-25T06:54:05.764Z,75.46
2019-01-25T06:56:37.078Z,75.46
2019-01-25T06:59:14.560Z,76.38
2019-01-25T07:01:58.829Z,75.46
2019-01-25T07:04:29.886Z,75.03
2019-01-25T07:07:01.165Z,75.03
2019-01-25T07:09:32.504Z,74.64
2019-01-25T07:12:03.893Z,74.60
2019-01-25T07:14:34.994Z,74.53
2019-01-25T07:17:06.378Z,74.57
2019-01-25T07:19:37.915Z,74.34
2019-01-25T07:22:09.174Z,74.34
2019-01-25T07:24:40.499Z,74.98
2019-01-25T07:27:11.768Z,74.98
2019-01-25T07:29:42.812Z,74.65
2019-01-25T07:32:13.874Z,74.65
2019-01-25T07:34:45.025Z,74.84
2019-01-25T07:37:16.411Z,74.34
2019-01-25T07:39:48.126Z,74.15
2019-01-25T07:42:19.165Z,74.15
2019-01-25T07:44:50.600Z,74.83
2019-01-25T07:47:21.816Z,74.83
2019-01-25T07:49:53.044Z,74.68
2019-01-25T07:52:24.491Z,74.68
2019-01-25T07:54:55.567Z,75.31
2019-01-25T07:57:26.980Z,75.79
2019-01-25T07:59:58.234Z,75.44
2019-01-25T08:02:29.577Z,75.95
2019-01-25T08:05:01.710Z,75.74
2019-01-25T08:07:32.933Z,75.74
2019-01-25T08:10:05.038Z,75.92
2019-01-25T08:12:36.456Z,76.31
2019-01-25T08:15:10.002Z,76.58
2019-01-25T08:17:41.337Z,76.58
2019-01-25T08:20:14.970Z,77.22
2019-01-25T08:22:46.482Z,76.77
2019-01-25T08:25:18.008Z,77.70
2019-01-25T08:27:51.037Z,77.70
2019-01-25T08:30:22.568Z,76.99
2019-01-25T08:32:54.029Z,76.38
2019-01-25T08:35:25.467Z,76.38
2019-01-25T08:37:56.750Z,76.52
2019-01-25T08:40:28.066Z,76.93
2019-01-25T08:42:59.322Z,76.20
2019-01-25T08:45:30.503Z,76.20
2019-01-25T08:48:01.821Z,77.00
2019-01-25T08:50:33.075Z,77.00
2019-01-25T08:53:04.706Z,77.44
2019-01-25T08:55:36.104Z,76.97
2019-01-25T08:58:07.424Z,77.04
2019-01-25T09:00:38.804Z,77.29
2019-01-25T09:03:09.800Z,77.35
2019-01-25T09:05:41.202Z,76.93
2019-01-25T09:08:14.759Z,76.93
2019-01-25T09:10:46.150Z,76.26
2019-01-25T09:13:17.499Z,76.46
2019-01-25T09:15:48.779Z,76.46
2019-01-25T09:18:20.171Z,76.63
2019-01-25T09:20:51.341Z,76.02
2019-01-25T09:23:22.513Z,75.20
2019-01-25T09:26:00.763Z,75.20
2019-01-25T09:28:26.822Z,74.99
2019-01-25T09:30:57.991Z,74.60
2019-01-25T09:33:29.224Z,75.59
2019-01-25T09:36:00.443Z,75.59
2019-01-25T09:38:34.928Z,75.50
2019-01-25T09:41:06.117Z,74.81
2019-01-25T09:43:37.562Z,74.95
2019-01-25T09:46:08.860Z,74.62
2019-01-25T09:48:40.155Z,74.50
2019-01-25T09:51:12.522Z,73.70
2019-01-25T09:53:43.800Z,73.24
2019-01-25T09:56:15.158Z,73.34
2019-01-25T09:58:48.166Z,72.79
2019-01-25T10:01:19.428Z,72.29
2019-01-25T10:03:50.735Z,72.66
2019-01-25T10:06:22.005Z,72.07
2019-01-25T10:08:53.257Z,71.92
2019-01-25T10:11:24.475Z,71.60
2019-01-25T10:13:55.961Z,71.41
2019-01-25T10:16:27.298Z,72.16
2019-01-25T10:18:58.518Z,71.24
2019-01-25T10:21:29.779Z,71.24
2019-01-25T10:24:00.940Z,71.33
2019-01-25T10:26:32.207Z,71.19
2019-01-25T10:29:03.431Z,70.74
2019-01-25T10:31:34.756Z,71.21
2019-01-25T10:34:06.458Z,70.42
2019-01-25T10:36:37.645Z,71.38
2019-01-25T10:39:09.931Z,70.75
2019-01-25T10:41:41.095Z,70.96
2019-01-25T10:44:12.443Z,72.59
2019-01-25T10:46:43.723Z,73.05
2019-01-25T10:49:15.029Z,72.02
2019-01-25T10:51:46.138Z,72.26
2019-01-25T10:54:17.490Z,71.61
2019-01-25T10:56:48.777Z,71.32
2019-01-25T10:59:20.074Z,71.71
2019-01-25T11:01:51.354Z,71.30
2019-01-25T11:04:22.548Z,71.38
2019-01-25T11:06:53.830Z,70.82
2019-01-25T11:09:25.057Z,70.47
2019-01-25T11:11:56.238Z,70.78
2019-01-25T11:14:27.560Z,71.36
2019-01-25T11:16:58.818Z,71.83
2019-01-25T11:19:30.128Z,73.17
2019-01-25T11:22:01.378Z,73.07
2019-01-25T11:24:32.618Z,72.32
2019-01-25T11:27:03.969Z,71.68
2019-01-25T11:29:35.294Z,71.58
2019-01-25T11:32:08.612Z,72.37
2019-01-25T11:34:39.964Z,71.21
2019-01-25T11:37:11.232Z,71.65
2019-01-25T11:39:42.487Z,71.14
2019-01-25T11:42:13.787Z,71.26
2019-01-25T11:44:46.867Z,71.54
2019-01-25T11:47:18.108Z,71.75
2019-01-25T11:49:49.415Z,71.33
2019-01-25T11:52:25.011Z,71.75
2019-01-25T11:54:53.504Z,71.82
2019-01-25T11:57:24.746Z,71.85
2019-01-25T11:59:55.899Z,72.01
2019-01-25T12:02:27.265Z,72.29
2019-01-25T12:04:58.485Z,72.45
2019-01-25T12:07:29.683Z,72.70
2019-01-25T12:10:02.276Z,72.39
2019-01-25T12:12:33.427Z,72.40
2019-01-25T12:15:06.010Z,71.99
2019-01-25T12:17:37.260Z,71.94
2019-01-25T12:20:11.445Z,72.25
2019-01-25T12:22:44.139Z,71.67
2019-01-25T12:25:15.480Z,71.68
2019-01-25T12:27:46.649Z,72.59
2019-01-25T12:30:37.606Z,73.31
2019-01-25T12:33:06.332Z,73.16
2019-01-25T12:35:42.575Z,73.28
2019-01-25T12:38:13.763Z,73.56
2019-01-25T12:40:45.820Z,72.87
2019-01-25T12:43:23.733Z,73.13
2019-01-25T12:45:50.618Z,73.86
2019-01-25T12:48:21.803Z,73.90
2019-01-25T12:50:56.883Z,73.98
2019-01-25T12:53:28.017Z,73.20
2019-01-25T12:55:59.227Z,73.67
2019-01-25T12:58:30.964Z,73.13
2019-01-25T13:01:02.313Z,74.03
2019-01-25T13:03:33.545Z,73.89
2019-01-25T13:06:05.050Z,74.28
2019-01-25T13:08:38.044Z,73.02
2019-01-25T13:11:09.514Z,73.11
2019-01-25T13:13:40.670Z,73.12
2019-01-25T13:16:11.816Z,72.84
2019-01-25T13:18:43.054Z,72.15
2019-01-25T13:21:14.364Z,72.65
2019-01-25T13:23:45.617Z,72.77
2019-01-25T13:26:16.902Z,72.14
2019-01-25T13:28:48.009Z,71.67
2019-01-25T13:31:19.245Z,71.83
2019-01-25T13:33:50.538Z,72.52
2019-01-25T13:36:21.981Z,74.01
2019-01-25T13:38:53.184Z,73.87
2019-01-25T13:41:27.430Z,74.00
2019-01-25T13:43:57.358Z,74.39
2019-01-25T13:46:28.509Z,74.29
2019-01-25T13:49:00.002Z,73.84
2019-01-25T13:51:31.285Z,74.01
2019-01-25T13:54:02.608Z,75.12
2019-01-25T13:56:33.773Z,75.40
2019-01-25T13:59:05.187Z,75.25
2019-01-25T14:01:36.549Z,75.59
2019-01-25T14:04:07.821Z,75.05
2019-01-25T14:06:39.075Z,75.05
2019-01-25T14:09:11.359Z,76.02
2019-01-25T14:11:42.724Z,76.02
2019-01-25T14:14:14.019Z,76.44
2019-01-25T14:16:45.213Z,76.44
2019-01-25T14:19:16.255Z,75.94
2019-01-25T14:21:47.466Z,76.24
2019-01-25T14:24:18.573Z,76.03
2019-01-25T14:26:49.746Z,76.11
2019-01-25T14:29:20.760Z,75.69
2019-01-25T14:31:52.218Z,75.69
2019-01-25T14:34:23.397Z,75.75
2019-01-25T14:36:54.698Z,75.44
2019-01-25T14:39:25.918Z,75.54
2019-01-25T14:41:57.140Z,75.79
2019-01-25T14:44:28.262Z,75.67
2019-01-25T14:46:59.519Z,75.84
2019-01-25T14:49:30.576Z,76.16
2019-01-25T14:52:01.967Z,76.52
2019-01-25T14:54:33.206Z,75.80
2019-01-25T14:57:04.410Z,75.65
2019-01-25T14:59:35.732Z,75.65
2019-01-25T15:02:07.124Z,75.87
2019-01-25T15:04:38.260Z,75.58
2019-01-25T15:07:09.365Z,75.61
2019-01-25T15:09:40.764Z,75.81
2019-01-25T15:12:12.138Z,75.53
2019-01-25T15:14:43.395Z,74.56
2019-01-25T15:17:14.687Z,74.04
2019-01-25T15:19:45.857Z,74.39
2019-01-25T15:22:17.325Z,74.00
2019-01-25T15:24:48.762Z,74.46
2019-01-25T15:27:20.089Z,74.19
2019-01-25T15:29:51.414Z,74.25
2019-01-25T15:32:23.714Z,74.51
2019-01-25T15:34:55.292Z,75.13
2019-01-25T15:37:26.593Z,75.13
2019-01-25T15:39:57.886Z,74.42
2019-01-25T15:42:29.103Z,75.00
2019-01-25T15:45:00.498Z,75.04
2019-01-25T15:47:31.782Z,75.44
2019-01-25T15:50:03.011Z,76.46
2019-01-25T15:52:34.421Z,75.88
2019-01-25T15:55:06.654Z,75.88
2019-01-25T15:57:38.235Z,75.44
2019-01-25T16:00:13.763Z,75.87
2019-01-25T16:02:45.422Z,74.96
2019-01-25T16:05:18.245Z,75.15
2019-01-25T16:07:50.053Z,75.23
2019-01-25T16:10:22.402Z,74.79
2019-01-25T16:12:54.020Z,74.54
2019-01-25T16:15:30.592Z,75.36
2019-01-25T16:18:01.884Z,74.93
2019-01-25T16:20:33.413Z,75.18
2019-01-25T16:23:04.834Z,74.27
2019-01-25T16:25:36.512Z,73.82
2019-01-25T16:28:08.767Z,73.76
2019-01-25T16:30:40.415Z,73.40
2019-01-25T16:33:11.663Z,72.70
2019-01-25T16:35:42.849Z,73.13
2019-01-25T16:38:14.083Z,73.51
2019-01-25T16:40:45.303Z,73.65
2019-01-25T16:43:16.530Z,73.67
2019-01-25T16:45:47.987Z,73.15
2019-01-25T16:48:19.290Z,74.83
2019-01-25T16:50:51.658Z,74.97
2019-01-25T16:53:23.086Z,74.97
2019-01-25T16:55:54.463Z,74.99
2019-01-25T16:58:26.025Z,74.96
2019-01-25T17:00:57.394Z,75.17
2019-01-25T17:03:28.573Z,74.77
2019-01-25T17:05:59.900Z,74.64
2019-01-25T17:08:32.475Z,75.53
2019-01-25T17:11:03.652Z,75.71
2019-01-25T17:13:35.200Z,75.51
2019-01-25T17:16:06.628Z,75.41
2019-01-25T17:18:38.005Z,76.08
2019-01-25T17:21:09.293Z,75.81
2019-01-25T17:23:40.553Z,76.21
2019-01-25T17:26:11.778Z,76.04
2019-01-25T17:28:43.078Z,75.94
2019-01-25T17:31:14.507Z,75.91
2019-01-25T17:33:45.797Z,75.86
2019-01-25T17:36:16.923Z,75.75
2019-01-25T17:38:48.071Z,75.74
2019-01-25T17:41:19.443Z,75.70
2019-01-25T17:43:51.040Z,75.53
2019-01-25T17:46:22.349Z,75.55
2019-01-25T17:48:53.642Z,76.20
2019-01-25T17:51:24.948Z,75.69
2019-01-25T17:53:58.123Z,76.11
2019-01-25T17:56:29.374Z,76.96
2019-01-25T17:59:00.579Z,76.13
2019-01-25T18:01:32.056Z,75.08
2019-01-25T18:04:03.470Z,76.05
2019-01-25T18:06:34.831Z,75.87
2019-01-25T18:09:08.516Z,75.07
2019-01-25T18:11:41.071Z,75.83
2019-01-25T18:14:13.292Z,74.56
2019-01-25T18:16:44.682Z,75.64
2019-01-25T18:19:16.177Z,74.92
2019-01-25T18:21:47.610Z,74.32
2019-01-25T18:24:19.048Z,75.51
2019-01-25T18:26:50.242Z,75.61
2019-01-25T18:29:46.948Z,76.47
2019-01-25T18:32:18.335Z,77.12
2019-01-25T18:34:49.631Z,76.71
2019-01-25T18:37:20.870Z,76.71
2019-01-25T18:39:54.037Z,76.21
2019-01-25T18:42:25.149Z,76.62
2019-01-25T18:44:57.020Z,75.28
2019-01-25T18:47:28.379Z,75.23
2019-01-25T18:49:59.775Z,75.23
2019-01-25T18:52:31.137Z,74.97
2019-01-25T18:55:02.418Z,75.40
2019-01-25T18:57:34.866Z,75.99
2019-01-25T19:00:07.881Z,75.99
2019-01-25T19:02:39.245Z,75.37
2019-01-25T19:05:10.860Z,75.93
2019-01-25T19:07:42.300Z,75.93
2019-01-25T19:10:17.048Z,75.33
2019-01-25T19:12:48.467Z,75.51
2019-01-25T19:15:22.221Z,75.51
2019-01-25T19:17:53.739Z,76.40
2019-01-25T19:20:25.064Z,76.40
2019-01-25T19:22:56.376Z,76.45
2019-01-25T19:25:27.710Z,76.12
2019-01-25T19:28:00.030Z,75.11
2019-01-25T19:30:36.910Z,75.25
2019-01-25T19:33:08.243Z,75.25
2019-01-25T19:35:39.767Z,75.71
2019-01-25T19:38:12.608Z,75.21
2019-01-25T19:40:44.054Z,74.37
2019-01-25T19:43:15.532Z,74.80
2019-01-25T19:45:46.891Z,75.67
2019-01-25T19:48:18.073Z,75.67
2019-01-25T19:50:49.420Z,74.84
2019-01-25T19:53:21.114Z,74.84
2019-01-25T19:55:55.021Z,76.36
2019-01-25T19:58:27.157Z,76.36
2019-01-25T20:00:59.159Z,76.36
2019-01-25T20:03:30.990Z,75.42
2019-01-25T20:06:02.761Z,75.55
2019-01-25T20:08:34.369Z,75.72
2019-01-25T20:11:06.549Z,75.65
2019-01-25T20:13:38.081Z,75.83
2019-01-25T20:16:09.816Z,75.83
2019-01-25T20:18:41.083Z,76.60
2019-01-25T20:21:12.405Z,76.48
2019-01-25T20:23:43.447Z,76.81
2019-01-25T20:26:14.735Z,76.66
2019-01-25T20:28:45.998Z,77.09
2019-01-25T20:31:17.372Z,77.09
2019-01-25T20:33:48.821Z,76.77
2019-01-25T20:36:20.122Z,77.05
2019-01-25T20:38:51.330Z,77.43
2019-01-25T20:41:22.702Z,77.43
2019-01-25T20:43:54.179Z,77.26
2019-01-25T20:46:25.804Z,77.44
2019-01-25T20:48:57.008Z,77.44
2019-01-25T20:51:28.264Z,78.10
2019-01-25T20:53:59.479Z,77.53
2019-01-25T20:56:30.831Z,76.25
2019-01-25T20:59:02.055Z,75.70
2019-01-25T21:01:33.349Z,76.62
2019-01-25T21:04:04.873Z,77.55
2019-01-25T21:06:36.402Z,76.11
2019-01-25T21:09:10.237Z,77.14
2019-01-25T21:11:41.633Z,76.60
2019-01-25T21:14:12.864Z,77.20
2019-01-25T21:16:44.368Z,77.53
2019-01-25T21:19:15.704Z,77.74
2019-01-25T21:21:47.004Z,77.42
2019-01-25T21:24:18.207Z,77.62
2019-01-25T21:26:49.536Z,76.64
2019-01-25T21:29:20.584Z,76.46
2019-01-25T21:31:51.778Z,76.46
2019-01-25T21:34:23.172Z,77.19
2019-01-25T21:36:54.555Z,76.61
2019-01-25T21:39:28.105Z,76.61
2019-01-25T21:41:59.522Z,76.44
2019-01-25T21:44:30.678Z,76.94
2019-01-25T21:47:02.290Z,76.89
2019-01-25T21:49:33.718Z,76.72
2019-01-25T21:52:04.964Z,76.24
2019-01-25T21:54:36.331Z,76.58
2019-01-25T21:57:07.686Z,76.34
2019-01-25T21:59:39.113Z,76.34
2019-01-25T22:02:12.561Z,76.75
2019-01-25T22:04:43.679Z,76.55
2019-01-25T22:07:14.845Z,76.55
2019-01-25T22:09:45.962Z,76.15
2019-01-25T22:12:17.339Z,76.15
2019-01-25T22:14:48.587Z,76.84
2019-01-25T22:17:19.716Z,76.33
2019-01-25T22:19:51.098Z,76.78
2019-01-25T22:22:22.500Z,76.53
2019-01-25T22:24:53.771Z,76.53
2019-01-25T22:27:24.986Z,75.61
2019-01-25T22:29:56.180Z,76.11
2019-01-25T22:32:27.342Z,76.11
2019-01-25T22:34:58.717Z,75.30
2019-01-25T22:37:29.921Z,76.21
2019-01-25T22:40:01.338Z,76.59
2019-01-25T22:42:32.639Z,76.59
2019-01-25T22:45:06.109Z,76.67
2019-01-25T22:47:37.418Z,75.42
2019-01-25T22:50:11.714Z,75.85
2019-01-25T22:52:43.025Z,75.89
2019-01-25T22:55:14.895Z,75.60
2019-01-25T22:57:46.451Z,76.45
2019-01-25T23:00:35.504Z,76.50
2019-01-25T23:03:06.960Z,76.18
2019-01-25T23:06:17.826Z,76.18
2019-01-25T23:08:49.045Z,76.57
2019-01-25T23:11:20.637Z,75.91
2019-01-25T23:13:52.034Z,76.29
2019-01-25T23:16:23.222Z,76.21
2019-01-25T23:18:54.554Z,76.26
2019-01-25T23:21:25.853Z,76.26
2019-01-25T23:23:57.116Z,74.81
2019-01-25T23:26:28.420Z,75.43
2019-01-25T23:29:00.747Z,76.17
2019-01-25T23:31:31.972Z,76.17
2019-01-25T23:34:03.144Z,75.71
2019-01-25T23:36:34.452Z,75.71
2019-01-25T23:39:08.581Z,75.32
2019-01-25T23:41:40.724Z,75.46
2019-01-25T23:44:11.970Z,74.96
2019-01-25T23:46:43.217Z,75.73
2019-01-25T23:49:14.749Z,76.03
2019-01-25T23:51:46.071Z,76.28
2019-01-25T23:54:17.256Z,76.28
2019-01-25T23:56:48.432Z,76.00
2019-01-25T23:59:19.752Z,76.44
